sensor_id;sensor_type;location;lat;lon;timestamp;P1;durP1;ratioP1;P2;durP2;ratioP2
22030;SDS011;11179;52.106;21.024;2024-03-25T00:00:24;26.50;;;12.23;;
22030;SDS011;11179;52.106;21.024;2024-03-25T00:02:50;24.43;;;12.60;;
22030;SDS011;11179;52.106;21.024;2024-03-25T00:05:16;26.33;;;13.73;;
22030;SDS011;11179;52.106;21.024;2024-03-25T00:07:47;24.57;;;12.27;;
22030;SDS011;11179;52.106;21.024;2024-03-25T00:10:13;30.17;;;14.37;;
22030;SDS011;11179;52.106;21.024;2024-03-25T00:12:39;27.60;;;12.83;;
22030;SDS011;11179;52.106;21.024;2024-03-25T00:15:04;26.40;;;12.07;;
22030;SDS011;11179;52.106;21.024;2024-03-25T00:17:30;24.53;;;12.70;;
22030;SDS011;11179;52.106;21.024;2024-03-25T00:19:56;27.20;;;13.03;;
22030;SDS011;11179;52.106;21.024;2024-03-25T00:22:21;25.77;;;13.27;;
22030;SDS011;11179;52.106;21.024;2024-03-25T00:24:48;26.57;;;12.93;;
22030;SDS011;11179;52.106;21.024;2024-03-25T00:27:14;23.63;;;12.57;;
22030;SDS011;11179;52.106;21.024;2024-03-25T00:29:40;29.33;;;13.73;;
22030;SDS011;11179;52.106;21.024;2024-03-25T00:32:06;26.77;;;13.40;;
22030;SDS011;11179;52.106;21.024;2024-03-25T00:34:31;21.30;;;10.90;;
22030;SDS011;11179;52.106;21.024;2024-03-25T00:36:57;30.67;;;13.80;;
22030;SDS011;11179;52.106;21.024;2024-03-25T00:39:23;26.53;;;12.70;;
22030;SDS011;11179;52.106;21.024;2024-03-25T00:41:49;30.00;;;13.60;;
22030;SDS011;11179;52.106;21.024;2024-03-25T00:44:14;29.40;;;13.50;;
22030;SDS011;11179;52.106;21.024;2024-03-25T00:46:40;29.67;;;13.80;;
22030;SDS011;11179;52.106;21.024;2024-03-25T00:49:06;28.93;;;13.73;;
22030;SDS011;11179;52.106;21.024;2024-03-25T00:51:32;26.60;;;14.40;;
22030;SDS011;11179;52.106;21.024;2024-03-25T00:53:58;30.93;;;13.90;;
22030;SDS011;11179;52.106;21.024;2024-03-25T00:56:23;31.00;;;14.23;;
22030;SDS011;11179;52.106;21.024;2024-03-25T00:58:48;31.10;;;14.93;;
22030;SDS011;11179;52.106;21.024;2024-03-25T01:01:14;24.77;;;13.07;;
22030;SDS011;11179;52.106;21.024;2024-03-25T01:03:39;39.43;;;16.30;;
22030;SDS011;11179;52.106;21.024;2024-03-25T01:06:05;32.30;;;15.23;;
22030;SDS011;11179;52.106;21.024;2024-03-25T01:08:30;31.37;;;14.53;;
22030;SDS011;11179;52.106;21.024;2024-03-25T01:10:55;34.07;;;16.13;;
22030;SDS011;11179;52.106;21.024;2024-03-25T01:13:21;31.17;;;16.07;;
22030;SDS011;11179;52.106;21.024;2024-03-25T01:15:46;25.73;;;12.97;;
22030;SDS011;11179;52.106;21.024;2024-03-25T01:18:12;29.27;;;14.57;;
22030;SDS011;11179;52.106;21.024;2024-03-25T01:20:37;39.00;;;15.03;;
22030;SDS011;11179;52.106;21.024;2024-03-25T01:23:03;38.73;;;16.47;;
22030;SDS011;11179;52.106;21.024;2024-03-25T01:25:30;32.60;;;15.17;;
22030;SDS011;11179;52.106;21.024;2024-03-25T01:27:55;32.47;;;15.77;;
22030;SDS011;11179;52.106;21.024;2024-03-25T01:30:21;32.40;;;15.33;;
22030;SDS011;11179;52.106;21.024;2024-03-25T01:32:47;34.80;;;16.40;;
22030;SDS011;11179;52.106;21.024;2024-03-25T01:35:13;33.30;;;16.00;;
22030;SDS011;11179;52.106;21.024;2024-03-25T01:37:40;34.27;;;15.77;;
22030;SDS011;11179;52.106;21.024;2024-03-25T01:40:06;31.53;;;15.40;;
22030;SDS011;11179;52.106;21.024;2024-03-25T01:42:37;33.38;;;14.75;;
22030;SDS011;11179;52.106;21.024;2024-03-25T01:45:03;32.47;;;15.10;;
22030;SDS011;11179;52.106;21.024;2024-03-25T01:47:29;34.27;;;15.83;;
22030;SDS011;11179;52.106;21.024;2024-03-25T01:49:57;33.43;;;16.27;;
22030;SDS011;11179;52.106;21.024;2024-03-25T01:52:23;34.07;;;16.70;;
22030;SDS011;11179;52.106;21.024;2024-03-25T01:54:50;32.90;;;14.53;;
22030;SDS011;11179;52.106;21.024;2024-03-25T01:57:16;37.93;;;16.07;;
22030;SDS011;11179;52.106;21.024;2024-03-25T01:59:42;31.93;;;16.43;;
22030;SDS011;11179;52.106;21.024;2024-03-25T02:02:08;29.30;;;14.67;;
22030;SDS011;11179;52.106;21.024;2024-03-25T02:04:36;29.57;;;14.97;;
22030;SDS011;11179;52.106;21.024;2024-03-25T02:07:02;35.13;;;17.00;;
22030;SDS011;11179;52.106;21.024;2024-03-25T02:09:29;33.60;;;16.30;;
22030;SDS011;11179;52.106;21.024;2024-03-25T02:11:54;32.57;;;15.23;;
22030;SDS011;11179;52.106;21.024;2024-03-25T02:14:20;34.37;;;16.80;;
22030;SDS011;11179;52.106;21.024;2024-03-25T02:16:46;33.37;;;15.30;;
22030;SDS011;11179;52.106;21.024;2024-03-25T02:19:11;33.90;;;16.20;;
22030;SDS011;11179;52.106;21.024;2024-03-25T02:21:40;37.07;;;18.13;;
22030;SDS011;11179;52.106;21.024;2024-03-25T02:24:07;42.80;;;16.20;;
22030;SDS011;11179;52.106;21.024;2024-03-25T02:26:35;37.40;;;18.00;;
22030;SDS011;11179;52.106;21.024;2024-03-25T02:29:01;36.00;;;18.20;;
22030;SDS011;11179;52.106;21.024;2024-03-25T02:31:27;36.23;;;16.30;;
22030;SDS011;11179;52.106;21.024;2024-03-25T02:33:52;30.00;;;13.63;;
22030;SDS011;11179;52.106;21.024;2024-03-25T02:36:17;30.77;;;17.07;;
22030;SDS011;11179;52.106;21.024;2024-03-25T02:38:43;32.47;;;16.50;;
22030;SDS011;11179;52.106;21.024;2024-03-25T02:41:08;31.93;;;16.60;;
22030;SDS011;11179;52.106;21.024;2024-03-25T02:43:34;40.00;;;17.47;;
22030;SDS011;11179;52.106;21.024;2024-03-25T02:46:00;30.77;;;15.20;;
22030;SDS011;11179;52.106;21.024;2024-03-25T02:48:25;31.17;;;15.67;;
22030;SDS011;11179;52.106;21.024;2024-03-25T02:50:50;30.90;;;16.53;;
22030;SDS011;11179;52.106;21.024;2024-03-25T02:53:16;33.23;;;16.47;;
22030;SDS011;11179;52.106;21.024;2024-03-25T02:55:41;31.80;;;16.23;;
22030;SDS011;11179;52.106;21.024;2024-03-25T02:58:06;38.50;;;17.70;;
22030;SDS011;11179;52.106;21.024;2024-03-25T03:00:32;37.10;;;16.53;;
22030;SDS011;11179;52.106;21.024;2024-03-25T03:02:57;34.70;;;16.23;;
22030;SDS011;11179;52.106;21.024;2024-03-25T03:05:23;35.50;;;17.33;;
22030;SDS011;11179;52.106;21.024;2024-03-25T03:07:48;33.40;;;17.30;;
22030;SDS011;11179;52.106;21.024;2024-03-25T03:10:13;40.13;;;17.40;;
22030;SDS011;11179;52.106;21.024;2024-03-25T03:12:41;33.92;;;16.27;;
22030;SDS011;11179;52.106;21.024;2024-03-25T03:15:06;36.10;;;15.93;;
22030;SDS011;11179;52.106;21.024;2024-03-25T03:17:32;32.67;;;15.60;;
22030;SDS011;11179;52.106;21.024;2024-03-25T03:19:57;34.97;;;15.30;;
22030;SDS011;11179;52.106;21.024;2024-03-25T03:22:22;36.53;;;15.97;;
22030;SDS011;11179;52.106;21.024;2024-03-25T03:24:48;38.73;;;17.70;;
22030;SDS011;11179;52.106;21.024;2024-03-25T03:27:13;35.30;;;14.87;;
22030;SDS011;11179;52.106;21.024;2024-03-25T03:29:38;34.87;;;16.07;;
22030;SDS011;11179;52.106;21.024;2024-03-25T03:32:04;35.37;;;15.43;;
22030;SDS011;11179;52.106;21.024;2024-03-25T03:34:29;31.57;;;15.57;;
22030;SDS011;11179;52.106;21.024;2024-03-25T03:36:54;32.40;;;15.83;;
22030;SDS011;11179;52.106;21.024;2024-03-25T03:39:20;32.33;;;15.00;;
22030;SDS011;11179;52.106;21.024;2024-03-25T03:41:45;31.60;;;16.13;;
22030;SDS011;11179;52.106;21.024;2024-03-25T03:44:10;34.27;;;16.17;;
22030;SDS011;11179;52.106;21.024;2024-03-25T03:46:37;33.40;;;14.20;;
22030;SDS011;11179;52.106;21.024;2024-03-25T03:49:02;34.03;;;16.07;;
22030;SDS011;11179;52.106;21.024;2024-03-25T03:51:28;32.90;;;16.00;;
22030;SDS011;11179;52.106;21.024;2024-03-25T03:53:53;31.03;;;15.57;;
22030;SDS011;11179;52.106;21.024;2024-03-25T03:56:18;32.10;;;16.40;;
22030;SDS011;11179;52.106;21.024;2024-03-25T03:58:44;36.80;;;16.27;;
22030;SDS011;11179;52.106;21.024;2024-03-25T04:01:15;35.70;;;15.87;;
22030;SDS011;11179;52.106;21.024;2024-03-25T04:03:41;32.17;;;15.13;;
22030;SDS011;11179;52.106;21.024;2024-03-25T04:06:08;35.20;;;15.73;;
22030;SDS011;11179;52.106;21.024;2024-03-25T04:08:35;31.63;;;15.33;;
22030;SDS011;11179;52.106;21.024;2024-03-25T04:11:01;32.67;;;14.87;;
22030;SDS011;11179;52.106;21.024;2024-03-25T04:13:27;35.80;;;14.95;;
22030;SDS011;11179;52.106;21.024;2024-03-25T04:15:52;34.40;;;15.17;;
22030;SDS011;11179;52.106;21.024;2024-03-25T04:18:17;35.37;;;16.67;;
22030;SDS011;11179;52.106;21.024;2024-03-25T04:20:44;33.10;;;16.10;;
22030;SDS011;11179;52.106;21.024;2024-03-25T04:23:09;32.90;;;15.87;;
22030;SDS011;11179;52.106;21.024;2024-03-25T04:25:35;33.93;;;16.23;;
22030;SDS011;11179;52.106;21.024;2024-03-25T04:28:02;32.67;;;16.67;;
22030;SDS011;11179;52.106;21.024;2024-03-25T04:30:28;33.43;;;16.97;;
22030;SDS011;11179;52.106;21.024;2024-03-25T04:32:54;30.17;;;15.90;;
22030;SDS011;11179;52.106;21.024;2024-03-25T04:35:19;36.90;;;15.87;;
22030;SDS011;11179;52.106;21.024;2024-03-25T04:37:44;31.70;;;15.37;;
22030;SDS011;11179;52.106;21.024;2024-03-25T04:40:10;36.83;;;14.40;;
22030;SDS011;11179;52.106;21.024;2024-03-25T04:42:39;33.33;;;15.10;;
22030;SDS011;11179;52.106;21.024;2024-03-25T04:45:05;31.07;;;17.33;;
22030;SDS011;11179;52.106;21.024;2024-03-25T04:47:30;32.00;;;15.07;;
22030;SDS011;11179;52.106;21.024;2024-03-25T04:49:56;33.77;;;16.10;;
22030;SDS011;11179;52.106;21.024;2024-03-25T04:52:21;33.20;;;15.80;;
22030;SDS011;11179;52.106;21.024;2024-03-25T04:54:48;25.63;;;14.60;;
22030;SDS011;11179;52.106;21.024;2024-03-25T04:57:14;33.78;;;14.27;;
22030;SDS011;11179;52.106;21.024;2024-03-25T04:59:39;29.90;;;14.93;;
22030;SDS011;11179;52.106;21.024;2024-03-25T05:02:05;30.60;;;14.60;;
22030;SDS011;11179;52.106;21.024;2024-03-25T05:04:30;31.57;;;13.97;;
22030;SDS011;11179;52.106;21.024;2024-03-25T05:06:56;30.67;;;13.67;;
22030;SDS011;11179;52.106;21.024;2024-03-25T05:09:21;32.87;;;14.87;;
22030;SDS011;11179;52.106;21.024;2024-03-25T05:11:47;30.50;;;16.43;;
22030;SDS011;11179;52.106;21.024;2024-03-25T05:14:12;28.10;;;14.40;;
22030;SDS011;11179;52.106;21.024;2024-03-25T05:16:37;33.17;;;14.20;;
22030;SDS011;11179;52.106;21.024;2024-03-25T05:19:03;31.73;;;15.03;;
22030;SDS011;11179;52.106;21.024;2024-03-25T05:21:29;32.70;;;13.90;;
22030;SDS011;11179;52.106;21.024;2024-03-25T05:23:55;26.47;;;13.40;;
22030;SDS011;11179;52.106;21.024;2024-03-25T05:26:21;27.93;;;13.40;;
22030;SDS011;11179;52.106;21.024;2024-03-25T05:28:46;27.53;;;12.53;;
22030;SDS011;11179;52.106;21.024;2024-03-25T05:31:11;35.70;;;14.73;;
22030;SDS011;11179;52.106;21.024;2024-03-25T05:33:37;26.37;;;12.40;;
22030;SDS011;11179;52.106;21.024;2024-03-25T05:36:03;26.93;;;12.43;;
22030;SDS011;11179;52.106;21.024;2024-03-25T05:38:28;32.60;;;13.43;;
22030;SDS011;11179;52.106;21.024;2024-03-25T05:40:54;32.80;;;15.40;;
22030;SDS011;11179;52.106;21.024;2024-03-25T05:43:19;27.23;;;14.07;;
22030;SDS011;11179;52.106;21.024;2024-03-25T05:45:54;27.93;;;11.77;;
22030;SDS011;11179;52.106;21.024;2024-03-25T05:48:21;30.97;;;13.40;;
22030;SDS011;11179;52.106;21.024;2024-03-25T05:50:56;27.07;;;12.33;;
22030;SDS011;11179;52.106;21.024;2024-03-25T05:53:26;28.47;;;12.67;;
22030;SDS011;11179;52.106;21.024;2024-03-25T05:55:52;26.83;;;12.97;;
22030;SDS011;11179;52.106;21.024;2024-03-25T05:58:17;23.83;;;12.20;;
22030;SDS011;11179;52.106;21.024;2024-03-25T06:00:43;26.50;;;11.80;;
22030;SDS011;11179;52.106;21.024;2024-03-25T06:03:08;25.63;;;11.87;;
22030;SDS011;11179;52.106;21.024;2024-03-25T06:05:33;24.50;;;10.20;;
22030;SDS011;11179;52.106;21.024;2024-03-25T06:07:59;27.33;;;13.13;;
22030;SDS011;11179;52.106;21.024;2024-03-25T06:10:24;22.47;;;10.50;;
22030;SDS011;11179;52.106;21.024;2024-03-25T06:12:49;28.13;;;10.90;;
22030;SDS011;11179;52.106;21.024;2024-03-25T06:15:15;21.13;;;10.90;;
22030;SDS011;11179;52.106;21.024;2024-03-25T06:17:40;23.77;;;10.80;;
22030;SDS011;11179;52.106;21.024;2024-03-25T06:20:05;23.43;;;10.30;;
22030;SDS011;11179;52.106;21.024;2024-03-25T06:22:31;17.17;;;9.00;;
22030;SDS011;11179;52.106;21.024;2024-03-25T06:24:56;25.47;;;10.33;;
22030;SDS011;11179;52.106;21.024;2024-03-25T06:27:22;23.37;;;9.93;;
22030;SDS011;11179;52.106;21.024;2024-03-25T06:29:48;26.23;;;10.80;;
22030;SDS011;11179;52.106;21.024;2024-03-25T06:32:13;22.93;;;9.53;;
22030;SDS011;11179;52.106;21.024;2024-03-25T06:34:57;17.77;;;8.60;;
22030;SDS011;11179;52.106;21.024;2024-03-25T06:37:25;22.70;;;9.77;;
22030;SDS011;11179;52.106;21.024;2024-03-25T06:39:51;21.80;;;9.20;;
22030;SDS011;11179;52.106;21.024;2024-03-25T06:42:18;20.70;;;9.43;;
22030;SDS011;11179;52.106;21.024;2024-03-25T06:44:44;21.10;;;10.00;;
22030;SDS011;11179;52.106;21.024;2024-03-25T06:47:13;19.97;;;8.30;;
22030;SDS011;11179;52.106;21.024;2024-03-25T06:49:39;18.97;;;9.00;;
22030;SDS011;11179;52.106;21.024;2024-03-25T06:52:04;19.77;;;9.30;;
22030;SDS011;11179;52.106;21.024;2024-03-25T06:54:30;21.80;;;10.47;;
22030;SDS011;11179;52.106;21.024;2024-03-25T06:56:55;18.00;;;9.00;;
22030;SDS011;11179;52.106;21.024;2024-03-25T06:59:21;20.63;;;9.63;;
22030;SDS011;11179;52.106;21.024;2024-03-25T07:01:47;20.97;;;8.80;;
22030;SDS011;11179;52.106;21.024;2024-03-25T07:04:12;20.77;;;9.80;;
22030;SDS011;11179;52.106;21.024;2024-03-25T07:06:38;21.90;;;9.60;;
22030;SDS011;11179;52.106;21.024;2024-03-25T07:09:03;19.20;;;8.83;;
22030;SDS011;11179;52.106;21.024;2024-03-25T07:11:28;17.20;;;8.50;;
22030;SDS011;11179;52.106;21.024;2024-03-25T07:13:54;22.83;;;9.20;;
22030;SDS011;11179;52.106;21.024;2024-03-25T07:16:19;21.00;;;8.90;;
22030;SDS011;11179;52.106;21.024;2024-03-25T07:18:44;28.97;;;10.70;;
22030;SDS011;11179;52.106;21.024;2024-03-25T07:21:10;18.50;;;8.17;;
22030;SDS011;11179;52.106;21.024;2024-03-25T07:23:35;14.50;;;6.73;;
22030;SDS011;11179;52.106;21.024;2024-03-25T07:26:00;19.47;;;8.43;;
22030;SDS011;11179;52.106;21.024;2024-03-25T07:28:26;18.67;;;8.93;;
22030;SDS011;11179;52.106;21.024;2024-03-25T07:30:51;23.50;;;8.30;;
22030;SDS011;11179;52.106;21.024;2024-03-25T07:33:16;17.80;;;8.50;;
22030;SDS011;11179;52.106;21.024;2024-03-25T07:35:44;14.83;;;8.13;;
22030;SDS011;11179;52.106;21.024;2024-03-25T07:38:10;21.13;;;8.87;;
22030;SDS011;11179;52.106;21.024;2024-03-25T07:40:35;21.17;;;8.30;;
22030;SDS011;11179;52.106;21.024;2024-03-25T07:43:00;17.17;;;7.20;;
22030;SDS011;11179;52.106;21.024;2024-03-25T07:45:26;21.67;;;8.13;;
22030;SDS011;11179;52.106;21.024;2024-03-25T07:47:51;15.60;;;6.93;;
22030;SDS011;11179;52.106;21.024;2024-03-25T07:50:16;19.03;;;6.50;;
22030;SDS011;11179;52.106;21.024;2024-03-25T07:52:42;16.13;;;7.03;;
22030;SDS011;11179;52.106;21.024;2024-03-25T07:55:07;18.60;;;6.27;;
22030;SDS011;11179;52.106;21.024;2024-03-25T07:57:33;16.80;;;6.90;;
22030;SDS011;11179;52.106;21.024;2024-03-25T07:59:58;11.30;;;6.03;;
22030;SDS011;11179;52.106;21.024;2024-03-25T08:02:24;13.43;;;7.70;;
22030;SDS011;11179;52.106;21.024;2024-03-25T08:04:49;14.83;;;6.60;;
22030;SDS011;11179;52.106;21.024;2024-03-25T08:07:14;18.30;;;6.90;;
22030;SDS011;11179;52.106;21.024;2024-03-25T08:09:40;14.80;;;7.23;;
22030;SDS011;11179;52.106;21.024;2024-03-25T08:12:05;17.20;;;7.33;;
22030;SDS011;11179;52.106;21.024;2024-03-25T08:14:31;15.73;;;6.97;;
22030;SDS011;11179;52.106;21.024;2024-03-25T08:16:56;12.57;;;6.00;;
22030;SDS011;11179;52.106;21.024;2024-03-25T08:19:22;13.00;;;6.50;;
22030;SDS011;11179;52.106;21.024;2024-03-25T08:21:47;12.00;;;6.83;;
22030;SDS011;11179;52.106;21.024;2024-03-25T08:24:13;11.07;;;5.80;;
22030;SDS011;11179;52.106;21.024;2024-03-25T08:26:39;13.17;;;5.67;;
22030;SDS011;11179;52.106;21.024;2024-03-25T08:29:04;13.10;;;5.40;;
22030;SDS011;11179;52.106;21.024;2024-03-25T08:31:30;14.30;;;5.67;;
22030;SDS011;11179;52.106;21.024;2024-03-25T08:33:56;12.20;;;5.83;;
22030;SDS011;11179;52.106;21.024;2024-03-25T08:36:21;16.37;;;6.40;;
22030;SDS011;11179;52.106;21.024;2024-03-25T08:38:47;15.67;;;6.70;;
22030;SDS011;11179;52.106;21.024;2024-03-25T08:41:12;19.40;;;6.80;;
22030;SDS011;11179;52.106;21.024;2024-03-25T08:43:37;13.00;;;6.40;;
22030;SDS011;11179;52.106;21.024;2024-03-25T08:46:03;15.27;;;6.33;;
22030;SDS011;11179;52.106;21.024;2024-03-25T08:48:29;11.47;;;6.27;;
22030;SDS011;11179;52.106;21.024;2024-03-25T08:50:54;10.97;;;5.67;;
22030;SDS011;11179;52.106;21.024;2024-03-25T08:53:20;13.37;;;5.83;;
22030;SDS011;11179;52.106;21.024;2024-03-25T08:55:46;13.67;;;5.60;;
22030;SDS011;11179;52.106;21.024;2024-03-25T08:58:13;13.70;;;5.20;;
22030;SDS011;11179;52.106;21.024;2024-03-25T09:00:38;12.27;;;5.73;;
22030;SDS011;11179;52.106;21.024;2024-03-25T09:03:04;17.00;;;5.87;;
22030;SDS011;11179;52.106;21.024;2024-03-25T09:05:30;8.67;;;4.87;;
22030;SDS011;11179;52.106;21.024;2024-03-25T09:07:55;11.07;;;5.07;;
22030;SDS011;11179;52.106;21.024;2024-03-25T09:10:21;8.97;;;4.83;;
22030;SDS011;11179;52.106;21.024;2024-03-25T09:13:05;11.77;;;5.43;;
22030;SDS011;11179;52.106;21.024;2024-03-25T09:15:30;11.73;;;5.33;;
22030;SDS011;11179;52.106;21.024;2024-03-25T09:17:56;13.33;;;5.20;;
22030;SDS011;11179;52.106;21.024;2024-03-25T09:20:21;14.27;;;5.67;;
22030;SDS011;11179;52.106;21.024;2024-03-25T09:22:47;15.47;;;5.30;;
22030;SDS011;11179;52.106;21.024;2024-03-25T09:25:16;14.90;;;4.40;;
22030;SDS011;11179;52.106;21.024;2024-03-25T09:27:45;12.27;;;4.23;;
22030;SDS011;11179;52.106;21.024;2024-03-25T09:30:11;9.10;;;4.63;;
22030;SDS011;11179;52.106;21.024;2024-03-25T09:32:36;10.37;;;4.67;;
22030;SDS011;11179;52.106;21.024;2024-03-25T09:35:02;11.00;;;5.00;;
22030;SDS011;11179;52.106;21.024;2024-03-25T09:37:28;13.60;;;5.70;;
22030;SDS011;11179;52.106;21.024;2024-03-25T09:39:54;11.67;;;5.97;;
22030;SDS011;11179;52.106;21.024;2024-03-25T09:42:23;15.20;;;5.63;;
22030;SDS011;11179;52.106;21.024;2024-03-25T09:44:52;16.93;;;5.30;;
22030;SDS011;11179;52.106;21.024;2024-03-25T09:47:23;13.47;;;5.60;;
22030;SDS011;11179;52.106;21.024;2024-03-25T09:49:49;20.90;;;5.47;;
22030;SDS011;11179;52.106;21.024;2024-03-25T09:52:16;13.50;;;5.13;;
22030;SDS011;11179;52.106;21.024;2024-03-25T09:54:42;9.47;;;4.67;;
22030;SDS011;11179;52.106;21.024;2024-03-25T09:57:08;12.27;;;5.10;;
22030;SDS011;11179;52.106;21.024;2024-03-25T09:59:34;12.60;;;4.97;;
22030;SDS011;11179;52.106;21.024;2024-03-25T10:02:00;10.93;;;5.40;;
22030;SDS011;11179;52.106;21.024;2024-03-25T10:04:26;13.10;;;5.30;;
22030;SDS011;11179;52.106;21.024;2024-03-25T10:06:52;13.03;;;4.80;;
22030;SDS011;11179;52.106;21.024;2024-03-25T10:09:21;12.20;;;5.50;;
22030;SDS011;11179;52.106;21.024;2024-03-25T10:11:50;15.53;;;4.47;;
22030;SDS011;11179;52.106;21.024;2024-03-25T10:14:15;10.90;;;4.50;;
22030;SDS011;11179;52.106;21.024;2024-03-25T10:16:41;16.97;;;6.37;;
22030;SDS011;11179;52.106;21.024;2024-03-25T10:19:07;17.30;;;5.90;;
22030;SDS011;11179;52.106;21.024;2024-03-25T10:21:33;8.50;;;4.50;;
22030;SDS011;11179;52.106;21.024;2024-03-25T10:23:58;17.30;;;5.77;;
22030;SDS011;11179;52.106;21.024;2024-03-25T10:26:30;18.43;;;4.70;;
22030;SDS011;11179;52.106;21.024;2024-03-25T10:29:04;13.93;;;4.70;;
22030;SDS011;11179;52.106;21.024;2024-03-25T10:31:33;10.70;;;4.77;;
22030;SDS011;11179;52.106;21.024;2024-03-25T10:33:59;8.80;;;4.33;;
22030;SDS011;11179;52.106;21.024;2024-03-25T10:36:25;11.63;;;5.00;;
22030;SDS011;11179;52.106;21.024;2024-03-25T10:38:56;12.33;;;4.97;;
22030;SDS011;11179;52.106;21.024;2024-03-25T10:41:27;9.13;;;4.57;;
22030;SDS011;11179;52.106;21.024;2024-03-25T10:43:53;14.13;;;5.30;;
22030;SDS011;11179;52.106;21.024;2024-03-25T10:46:19;8.90;;;4.57;;
22030;SDS011;11179;52.106;21.024;2024-03-25T10:48:52;7.53;;;4.27;;
22030;SDS011;11179;52.106;21.024;2024-03-25T10:51:23;10.67;;;4.37;;
22030;SDS011;11179;52.106;21.024;2024-03-25T10:53:51;8.20;;;4.20;;
22030;SDS011;11179;52.106;21.024;2024-03-25T10:56:18;10.70;;;3.83;;
22030;SDS011;11179;52.106;21.024;2024-03-25T10:58:46;6.70;;;3.63;;
22030;SDS011;11179;52.106;21.024;2024-03-25T11:01:13;9.90;;;4.30;;
22030;SDS011;11179;52.106;21.024;2024-03-25T11:03:41;9.17;;;4.80;;
22030;SDS011;11179;52.106;21.024;2024-03-25T11:06:07;9.80;;;4.63;;
22030;SDS011;11179;52.106;21.024;2024-03-25T11:08:33;9.93;;;5.23;;
22030;SDS011;11179;52.106;21.024;2024-03-25T11:10:59;9.10;;;3.30;;
22030;SDS011;11179;52.106;21.024;2024-03-25T11:13:26;11.30;;;4.67;;
22030;SDS011;11179;52.106;21.024;2024-03-25T11:15:52;10.30;;;4.30;;
22030;SDS011;11179;52.106;21.024;2024-03-25T11:18:18;7.83;;;4.07;;
22030;SDS011;11179;52.106;21.024;2024-03-25T11:20:59;10.30;;;4.07;;
22030;SDS011;11179;52.106;21.024;2024-03-25T11:23:37;9.73;;;3.80;;
22030;SDS011;11179;52.106;21.024;2024-03-25T11:26:16;8.40;;;3.93;;
22030;SDS011;11179;52.106;21.024;2024-03-25T11:28:45;9.70;;;3.60;;
22030;SDS011;11179;52.106;21.024;2024-03-25T11:31:11;9.73;;;3.77;;
22030;SDS011;11179;52.106;21.024;2024-03-25T11:33:37;16.93;;;4.40;;
22030;SDS011;11179;52.106;21.024;2024-03-25T11:36:04;16.03;;;4.63;;
22030;SDS011;11179;52.106;21.024;2024-03-25T11:38:29;10.07;;;4.17;;
22030;SDS011;11179;52.106;21.024;2024-03-25T11:40:55;7.53;;;4.00;;
22030;SDS011;11179;52.106;21.024;2024-03-25T11:43:21;11.50;;;3.90;;
22030;SDS011;11179;52.106;21.024;2024-03-25T11:45:47;10.80;;;4.63;;
22030;SDS011;11179;52.106;21.024;2024-03-25T11:48:16;9.70;;;4.33;;
22030;SDS011;11179;52.106;21.024;2024-03-25T11:50:44;12.30;;;5.50;;
22030;SDS011;11179;52.106;21.024;2024-03-25T11:53:10;9.63;;;4.77;;
22030;SDS011;11179;52.106;21.024;2024-03-25T11:55:35;9.47;;;3.77;;
22030;SDS011;11179;52.106;21.024;2024-03-25T11:58:01;12.10;;;4.37;;
22030;SDS011;11179;52.106;21.024;2024-03-25T12:00:27;10.70;;;4.10;;
22030;SDS011;11179;52.106;21.024;2024-03-25T12:02:54;8.33;;;3.90;;
22030;SDS011;11179;52.106;21.024;2024-03-25T12:05:19;8.57;;;4.70;;
22030;SDS011;11179;52.106;21.024;2024-03-25T12:07:45;20.93;;;3.97;;
22030;SDS011;11179;52.106;21.024;2024-03-25T12:10:10;11.40;;;4.40;;
22030;SDS011;11179;52.106;21.024;2024-03-25T12:12:55;6.43;;;3.00;;
22030;SDS011;11179;52.106;21.024;2024-03-25T12:15:21;8.33;;;3.23;;
22030;SDS011;11179;52.106;21.024;2024-03-25T12:17:46;7.60;;;3.40;;
22030;SDS011;11179;52.106;21.024;2024-03-25T12:20:12;7.07;;;3.10;;
22030;SDS011;11179;52.106;21.024;2024-03-25T12:22:38;11.10;;;3.17;;
22030;SDS011;11179;52.106;21.024;2024-03-25T12:25:05;5.80;;;2.40;;
22030;SDS011;11179;52.106;21.024;2024-03-25T12:27:32;6.50;;;2.60;;
22030;SDS011;11179;52.106;21.024;2024-03-25T12:29:59;6.33;;;2.53;;
22030;SDS011;11179;52.106;21.024;2024-03-25T12:32:35;7.50;;;2.70;;
22030;SDS011;11179;52.106;21.024;2024-03-25T12:35:01;5.40;;;2.53;;
22030;SDS011;11179;52.106;21.024;2024-03-25T12:37:27;7.20;;;3.77;;
22030;SDS011;11179;52.106;21.024;2024-03-25T12:39:52;8.67;;;3.00;;
22030;SDS011;11179;52.106;21.024;2024-03-25T12:42:18;8.27;;;3.30;;
22030;SDS011;11179;52.106;21.024;2024-03-25T12:44:43;6.93;;;3.47;;
22030;SDS011;11179;52.106;21.024;2024-03-25T12:47:09;6.80;;;3.00;;
22030;SDS011;11179;52.106;21.024;2024-03-25T12:49:35;18.23;;;3.70;;
22030;SDS011;11179;52.106;21.024;2024-03-25T12:52:01;9.13;;;4.17;;
22030;SDS011;11179;52.106;21.024;2024-03-25T12:54:29;8.80;;;4.00;;
22030;SDS011;11179;52.106;21.024;2024-03-25T12:56:55;10.33;;;4.20;;
22030;SDS011;11179;52.106;21.024;2024-03-25T12:59:21;6.73;;;3.80;;
22030;SDS011;11179;52.106;21.024;2024-03-25T13:01:47;8.90;;;3.50;;
22030;SDS011;11179;52.106;21.024;2024-03-25T13:04:12;9.00;;;3.60;;
22030;SDS011;11179;52.106;21.024;2024-03-25T13:06:38;9.07;;;3.77;;
22030;SDS011;11179;52.106;21.024;2024-03-25T13:09:03;9.40;;;3.53;;
22030;SDS011;11179;52.106;21.024;2024-03-25T13:11:28;6.50;;;3.20;;
22030;SDS011;11179;52.106;21.024;2024-03-25T13:13:54;7.13;;;3.57;;
22030;SDS011;11179;52.106;21.024;2024-03-25T13:16:20;6.33;;;2.83;;
22030;SDS011;11179;52.106;21.024;2024-03-25T13:18:45;6.90;;;3.10;;
22030;SDS011;11179;52.106;21.024;2024-03-25T13:21:10;7.23;;;3.47;;
22030;SDS011;11179;52.106;21.024;2024-03-25T13:23:36;9.87;;;3.80;;
22030;SDS011;11179;52.106;21.024;2024-03-25T13:26:01;8.33;;;4.27;;
22030;SDS011;11179;52.106;21.024;2024-03-25T13:28:26;7.97;;;3.97;;
22030;SDS011;11179;52.106;21.024;2024-03-25T13:30:52;8.70;;;3.60;;
22030;SDS011;11179;52.106;21.024;2024-03-25T13:33:17;9.63;;;4.87;;
22030;SDS011;11179;52.106;21.024;2024-03-25T13:35:42;10.30;;;4.40;;
22030;SDS011;11179;52.106;21.024;2024-03-25T13:38:08;7.53;;;4.13;;
22030;SDS011;11179;52.106;21.024;2024-03-25T13:40:33;8.33;;;4.13;;
22030;SDS011;11179;52.106;21.024;2024-03-25T13:42:58;8.17;;;3.97;;
22030;SDS011;11179;52.106;21.024;2024-03-25T13:45:24;7.63;;;3.70;;
22030;SDS011;11179;52.106;21.024;2024-03-25T13:47:50;11.07;;;3.83;;
22030;SDS011;11179;52.106;21.024;2024-03-25T13:50:15;8.50;;;4.20;;
22030;SDS011;11179;52.106;21.024;2024-03-25T13:52:40;8.20;;;4.00;;
22030;SDS011;11179;52.106;21.024;2024-03-25T13:55:06;10.83;;;4.47;;
22030;SDS011;11179;52.106;21.024;2024-03-25T13:57:31;12.23;;;5.77;;
22030;SDS011;11179;52.106;21.024;2024-03-25T13:59:57;11.00;;;4.10;;
22030;SDS011;11179;52.106;21.024;2024-03-25T14:02:23;11.67;;;5.37;;
22030;SDS011;11179;52.106;21.024;2024-03-25T14:04:48;11.80;;;6.30;;
22030;SDS011;11179;52.106;21.024;2024-03-25T14:07:14;15.63;;;6.30;;
22030;SDS011;11179;52.106;21.024;2024-03-25T14:09:39;9.30;;;5.50;;
22030;SDS011;11179;52.106;21.024;2024-03-25T14:12:05;8.50;;;4.90;;